Terminal Aerodrome Forecast
Issued by NWS

Home | Current Version | Previous Version | Text Only | Print | Product List | Glossary On
Versions: 1 2 3 4 5 6 7 8 9 10 11 12 13 14 15 16 17 18 19 20 21 22 23 24 25 26 27 28 29 30 31 32 33 34 35 36 37 38 39 40 41 42 43 44 45 46 47 48 49 50
000
FTUS41 KCTP 230836 AAA
TAFUNV
TAF AMD
KUNV 230836Z 2309/2406 VRB02KT P6SM BKN060 BKN150
     FM231000 VRB04KT 6SM -RA BR OVC060
     FM231600 24013G23KT 4SM -SHRA BR OVC020
     FM232200 24013G23KT 4SM -RA BR OVC010=

USA.gov is the U.S. government's official web portal to all federal, state and local government web resources and services.